Time;durP1;ratioP1;P1;durP2;ratioP2;P2;SDS_P1;SDS_P2;PMS_P1;PMS_P2;Temp;Humidity;BMP_temperature;BMP_pressure;BME280_temperature;BME280_humidity;BME280_pressure;Samples;Min_cycle;Max_cycle;Signal;HPM_P1;HPM_P2
2021/09/12 00:00:30;;;;;;;77.53;43.67;;;17.40;99.90;;;;;;5075825;28;20024;-69
2021/09/12 00:02:55;;;;;;;77.60;42.33;;;17.30;99.90;;;;;;5094496;28;20088;-69
2021/09/12 00:05:21;;;;;;;67.60;36.45;;;17.30;99.90;;;;;;5094449;28;20027;-69
2021/09/12 00:07:47;;;;;;;68.80;36.45;;;17.20;99.90;;;;;;5094460;28;20346;-69
2021/09/12 00:10:13;;;;;;;64.30;34.22;;;17.20;99.90;;;;;;5094412;28;20024;-69
2021/09/12 00:12:39;;;;;;;54.33;30.92;;;17.20;99.90;;;;;;5094298;28;20028;-70
2021/09/12 00:15:07;;;;;;;56.08;30.10;;;17.10;99.90;;;;;;5094394;28;20020;-70
2021/09/12 00:17:32;;;;;;;51.25;30.00;;;17.10;99.90;;;;;;5094344;28;20515;-70
2021/09/12 00:19:58;;;;;;;55.03;30.45;;;17.10;99.90;;;;;;5094275;28;20036;-70
2021/09/12 00:22:24;;;;;;;53.05;29.77;;;17.10;99.90;;;;;;5093986;28;20020;-69
2021/09/12 00:24:49;;;;;;;40.72;24.23;;;17.00;99.90;;;;;;5094253;28;20032;-69
2021/09/12 00:27:15;;;;;;;37.67;21.90;;;16.90;99.90;;;;;;5094209;28;20032;-69
2021/09/12 00:29:40;;;;;;;34.70;19.33;;;16.90;99.90;;;;;;5094022;28;20423;-70
2021/09/12 00:32:06;;;;;;;34.78;18.30;;;16.90;99.90;;;;;;5093316;28;20072;-69
2021/09/12 00:34:32;;;;;;;28.55;16.92;;;16.90;99.90;;;;;;5094131;28;20395;-69
2021/09/12 00:36:57;;;;;;;31.30;17.38;;;16.80;99.90;;;;;;5094103;28;20021;-69
2021/09/12 00:39:23;;;;;;;34.25;19.35;;;16.80;99.90;;;;;;5092252;28;20016;-69
2021/09/12 00:41:48;;;;;;;27.58;16.02;;;16.70;99.90;;;;;;5094027;28;20382;-69
2021/09/12 00:44:14;;;;;;;29.27;16.48;;;16.70;99.90;;;;;;5094023;28;20032;-69
2021/09/12 00:46:41;;;;;;;31.77;17.40;;;16.70;99.90;;;;;;5093035;28;20028;-69
2021/09/12 00:49:06;;;;;;;25.00;14.07;;;16.70;99.90;;;;;;5075607;28;20020;-70
2021/09/12 00:51:32;;;;;;;18.65;12.13;;;16.60;99.90;;;;;;5093978;28;20350;-69
2021/09/12 00:53:59;;;;;;;24.40;11.95;;;16.60;99.90;;;;;;5093581;28;20027;-70
2021/09/12 00:56:27;;;;;;;20.25;12.13;;;16.60;99.90;;;;;;5093415;28;20547;-70
2021/09/12 00:58:55;;;;;;;21.92;12.13;;;16.60;99.90;;;;;;5093660;28;20074;-69
2021/09/12 01:01:21;;;;;;;18.17;11.65;;;16.60;99.90;;;;;;5093612;28;20016;-69
2021/09/12 01:03:46;;;;;;;21.10;11.77;;;16.60;99.90;;;;;;5093901;28;20369;-69
2021/09/12 01:06:12;;;;;;;25.52;13.02;;;16.60;99.90;;;;;;5092275;28;20056;-70
2021/09/12 01:08:39;;;;;;;23.77;13.02;;;16.60;99.90;;;;;;5093549;28;20081;-70
2021/09/12 01:11:05;;;;;;;22.77;12.50;;;16.50;99.90;;;;;;5093858;28;20036;-69
2021/09/12 01:13:38;;;;;;;16.52;10.70;;;16.50;99.90;;;;;;5092265;28;20024;-70
2021/09/12 01:16:20;;;;;;;20.45;10.90;;;16.50;99.90;;;;;;5093817;28;20077;-70
2021/09/12 01:18:47;;;;;;;16.20;8.73;;;16.50;99.90;;;;;;5075131;28;20028;-70
2021/09/12 01:21:16;;;;;;;11.45;6.68;;;16.50;99.90;;;;;;5093177;28;20444;-70
2021/09/12 01:23:41;;;;;;;9.10;5.85;;;16.40;99.90;;;;;;5092224;28;20032;-70
2021/09/12 01:26:07;;;;;;;10.02;5.88;;;16.30;99.90;;;;;;5093403;28;20103;-68
2021/09/12 01:28:34;;;;;;;8.75;5.75;;;16.40;99.90;;;;;;5093638;28;20077;-68
2021/09/12 01:31:00;;;;;;;9.20;6.35;;;16.40;99.90;;;;;;5093096;28;20166;-68
2021/09/12 01:33:26;;;;;;;8.85;5.28;;;16.40;99.90;;;;;;5093017;28;20181;-69
2021/09/12 01:35:52;;;;;;;8.52;5.90;;;16.40;99.90;;;;;;5093300;28;20109;-68
2021/09/12 01:38:18;;;;;;;7.63;6.03;;;16.30;99.90;;;;;;5093587;28;20055;-68
2021/09/12 01:40:44;;;;;;;10.85;6.05;;;16.40;99.90;;;;;;5094990;28;20020;-69
2021/09/12 01:43:09;;;;;;;7.70;5.80;;;16.40;99.90;;;;;;5097210;28;20028;-69
2021/09/12 01:45:35;;;;;;;8.27;5.57;;;16.40;99.90;;;;;;5097163;28;20113;-69
2021/09/12 01:48:00;;;;;;;6.65;5.20;;;16.40;99.90;;;;;;5097124;28;20028;-70
2021/09/12 01:50:27;;;;;;;7.20;5.35;;;16.30;99.90;;;;;;5097088;28;20036;-69
2021/09/12 01:52:53;;;;;;;8.88;5.88;;;16.40;99.90;;;;;;5096933;28;20480;-70
2021/09/12 01:55:20;;;;;;;8.13;6.25;;;16.40;99.90;;;;;;5096957;28;20028;-70
2021/09/12 01:57:46;;;;;;;9.35;6.20;;;16.50;99.90;;;;;;5096940;28;20027;-69
2021/09/12 02:00:12;;;;;;;11.68;6.97;;;16.40;99.90;;;;;;5096318;28;20012;-69
2021/09/12 02:02:38;;;;;;;10.25;6.88;;;16.50;99.90;;;;;;5096851;28;20433;-70
2021/09/12 02:05:04;;;;;;;11.98;8.00;;;16.50;99.90;;;;;;5096791;28;20077;-69
2021/09/12 02:07:30;;;;;;;11.07;8.93;;;16.50;99.90;;;;;;5094882;28;20046;-70
2021/09/12 02:09:56;;;;;;;17.00;10.85;;;16.40;99.90;;;;;;5096705;28;20457;-69
2021/09/12 02:12:21;;;;;;;16.52;10.68;;;16.50;99.90;;;;;;5096562;28;20366;-69
2021/09/12 02:14:47;;;;;;;19.77;12.30;;;16.40;99.90;;;;;;5096597;28;20457;-69
2021/09/12 02:17:12;;;;;;;17.70;11.55;;;16.50;99.90;;;;;;5096022;28;20024;-70
2021/09/12 02:19:38;;;;;;;17.38;12.07;;;16.50;99.90;;;;;;5096531;28;20031;-70
2021/09/12 02:22:03;;;;;;;21.25;13.45;;;16.50;99.90;;;;;;5096465;28;20047;-70
2021/09/12 02:24:29;;;;;;;20.77;13.90;;;16.50;99.90;;;;;;5096419;28;20033;-69
2021/09/12 02:26:54;;;;;;;22.58;13.98;;;16.50;99.90;;;;;;5096092;28;20358;-69
2021/09/12 02:29:20;;;;;;;27.50;16.33;;;16.50;99.90;;;;;;5077638;28;20485;-70
2021/09/12 02:31:45;;;;;;;31.55;17.02;;;16.50;99.90;;;;;;5095823;28;20028;-70
2021/09/12 02:34:11;;;;;;;31.80;17.92;;;16.50;99.90;;;;;;5096134;28;20466;-68
2021/09/12 02:36:37;;;;;;;32.00;18.33;;;16.50;99.90;;;;;;5094362;28;20024;-68
2021/09/12 02:39:03;;;;;;;32.35;19.02;;;16.50;99.90;;;;;;5096111;28;20026;-69
2021/09/12 02:41:28;;;;;;;32.40;19.13;;;16.60;99.90;;;;;;5096086;28;20027;-70
2021/09/12 02:43:54;;;;;;;34.10;18.77;;;16.50;99.90;;;;;;5096007;28;20032;-70
2021/09/12 02:46:19;;;;;;;32.22;20.33;;;16.50;99.90;;;;;;5095669;28;20043;-69
2021/09/12 02:48:45;;;;;;;38.42;20.30;;;16.50;99.90;;;;;;5095655;28;20028;-69
2021/09/12 02:51:11;;;;;;;38.83;20.80;;;16.50;99.90;;;;;;5095853;28;20020;-69
2021/09/12 02:53:37;;;;;;;44.90;21.60;;;16.50;99.90;;;;;;5093927;28;20161;-70
2021/09/12 02:56:03;;;;;;;41.95;20.15;;;16.50;99.90;;;;;;5077341;28;20111;-70
2021/09/12 02:58:28;;;;;;;41.42;20.50;;;16.50;99.90;;;;;;5095784;28;20076;-70
2021/09/12 03:00:54;;;;;;;38.88;20.42;;;16.50;99.90;;;;;;5095665;28;20123;-70
2021/09/12 03:03:19;;;;;;;41.90;22.88;;;16.50;99.90;;;;;;5095651;28;20073;-70
2021/09/12 03:05:45;;;;;;;40.85;21.63;;;16.50;99.90;;;;;;5095569;28;20355;-70
2021/09/12 03:08:10;;;;;;;36.88;21.05;;;16.50;99.90;;;;;;5094394;28;20365;-70
2021/09/12 03:10:36;;;;;;;35.72;21.27;;;16.50;99.90;;;;;;5095487;28;20024;-70
2021/09/12 03:13:01;;;;;;;38.72;21.40;;;16.50;99.90;;;;;;5095063;28;20111;-70
2021/09/12 03:15:27;;;;;;;35.25;21.48;;;16.50;99.90;;;;;;5093596;28;20115;-70
2021/09/12 03:17:53;;;;;;;36.78;21.13;;;16.50;99.90;;;;;;5095357;28;20453;-68
2021/09/12 03:20:18;;;;;;;36.80;21.58;;;16.50;99.90;;;;;;5093840;28;20173;-68
2021/09/12 03:22:44;;;;;;;37.55;21.10;;;16.60;99.90;;;;;;5095237;28;20028;-70
2021/09/12 03:25:09;;;;;;;43.10;21.95;;;16.50;99.90;;;;;;5094068;28;20429;-70
2021/09/12 03:27:35;;;;;;;37.70;21.45;;;16.50;99.90;;;;;;5095237;28;20347;-70
2021/09/12 03:30:01;;;;;;;37.58;21.17;;;16.50;99.90;;;;;;5095123;28;20024;-70
2021/09/12 03:32:26;;;;;;;39.20;21.75;;;16.50;99.90;;;;;;5076114;28;20116;-70
2021/09/12 03:34:52;;;;;;;36.20;22.13;;;16.50;99.90;;;;;;5095057;28;20028;-70
2021/09/12 03:37:17;;;;;;;40.50;23.13;;;16.50;99.90;;;;;;5093550;28;20024;-70
2021/09/12 03:39:43;;;;;;;37.25;21.05;;;16.50;99.90;;;;;;5094866;28;20475;-70
2021/09/12 03:42:09;;;;;;;41.90;22.75;;;16.50;99.90;;;;;;5094868;28;20381;-69
2021/09/12 03:44:34;;;;;;;40.90;23.58;;;16.50;99.90;;;;;;5076177;28;20466;-70
2021/09/12 03:47:00;;;;;;;45.00;23.35;;;16.50;99.90;;;;;;5094521;28;20027;-70
2021/09/12 03:49:25;;;;;;;46.08;23.13;;;16.50;99.90;;;;;;5094793;28;20028;-70
2021/09/12 03:51:51;;;;;;;54.95;24.67;;;16.50;99.90;;;;;;5094161;28;20039;-70
2021/09/12 03:54:16;;;;;;;46.38;25.00;;;16.50;99.90;;;;;;5094625;28;20028;-70
2021/09/12 03:56:42;;;;;;;51.10;25.35;;;16.50;99.90;;;;;;5094627;28;20030;-70
2021/09/12 03:59:07;;;;;;;49.20;24.48;;;16.50;99.90;;;;;;5094634;28;20035;-70
2021/09/12 04:01:33;;;;;;;48.38;25.35;;;16.50;99.90;;;;;;5094568;28;20453;-70
2021/09/12 04:03:58;;;;;;;51.92;25.85;;;16.40;99.90;;;;;;5093847;28;20036;-70
2021/09/12 04:06:24;;;;;;;51.63;25.55;;;16.40;99.90;;;;;;5092722;28;20540;-70
2021/09/12 04:08:50;;;;;;;55.63;26.38;;;16.40;99.90;;;;;;5094196;28;20020;-70
2021/09/12 04:11:15;;;;;;;62.45;28.20;;;16.40;99.90;;;;;;5093207;28;20039;-70
2021/09/12 04:13:41;;;;;;;63.72;29.40;;;16.40;99.90;;;;;;5094054;28;20059;-70
2021/09/12 04:16:06;;;;;;;60.58;29.30;;;16.40;99.90;;;;;;5094377;28;20076;-70
2021/09/12 04:18:32;;;;;;;62.88;29.90;;;16.40;99.90;;;;;;5094302;28;20107;-70
2021/09/12 04:20:57;;;;;;;70.38;31.63;;;16.40;99.90;;;;;;5093752;28;20494;-70
2021/09/12 04:23:23;;;;;;;78.20;34.85;;;16.40;99.90;;;;;;5094251;28;20028;-70
2021/09/12 04:25:48;;;;;;;81.55;35.63;;;16.40;99.90;;;;;;5093746;28;20035;-70
2021/09/12 04:28:14;;;;;;;78.90;35.63;;;16.40;99.90;;;;;;5094225;28;20488;-69
2021/09/12 04:30:41;;;;;;;77.05;34.78;;;16.30;99.90;;;;;;5094188;28;20035;-70
2021/09/12 04:33:07;;;;;;;78.40;36.03;;;16.30;99.90;;;;;;5094007;28;20044;-70
2021/09/12 04:35:32;;;;;;;85.90;37.65;;;16.30;99.90;;;;;;5092347;28;20605;-70
2021/09/12 04:37:58;;;;;;;93.28;38.95;;;16.30;99.90;;;;;;5094089;28;20024;-70
2021/09/12 04:40:23;;;;;;;92.70;38.83;;;16.30;99.90;;;;;;5093810;28;20016;-70
2021/09/12 04:42:49;;;;;;;99.88;40.25;;;16.30;99.90;;;;;;5094053;28;20042;-70
2021/09/12 04:45:14;;;;;;;108.03;44.53;;;16.20;99.90;;;;;;5093755;28;20107;-70
2021/09/12 04:47:40;;;;;;;121.75;48.33;;;16.30;99.90;;;;;;5093979;28;20028;-70
2021/09/12 04:50:06;;;;;;;127.95;48.30;;;16.20;99.90;;;;;;5092291;28;20032;-70
2021/09/12 04:52:32;;;;;;;125.03;49.33;;;16.20;99.90;;;;;;5092457;28;20030;-70
2021/09/12 04:54:57;;;;;;;137.02;51.30;;;16.20;99.90;;;;;;5093387;28;20024;-69
2021/09/12 04:57:23;;;;;;;144.05;52.97;;;16.20;99.90;;;;;;5092496;28;20020;-70
2021/09/12 04:59:48;;;;;;;119.25;47.72;;;16.20;99.90;;;;;;5093922;28;20492;-70
2021/09/12 05:02:14;;;;;;;111.13;46.10;;;16.20;99.90;;;;;;5092746;28;20469;-70
2021/09/12 05:04:39;;;;;;;133.52;48.38;;;16.10;99.90;;;;;;5093580;28;20028;-70
2021/09/12 05:07:05;;;;;;;130.55;50.10;;;16.10;99.90;;;;;;5092836;28;20028;-69
2021/09/12 05:09:31;;;;;;;139.82;50.70;;;16.10;99.90;;;;;;5093550;28;20032;-70
2021/09/12 05:11:56;;;;;;;134.77;51.67;;;16.10;99.90;;;;;;5093776;28;20066;-70
2021/09/12 05:14:24;;;;;;;140.88;54.25;;;16.10;99.90;;;;;;5093668;28;20035;-70
2021/09/12 05:16:49;;;;;;;134.57;51.42;;;16.10;99.90;;;;;;5097424;28;20027;-69
2021/09/12 05:19:15;;;;;;;135.68;50.28;;;16.10;99.90;;;;;;5097302;28;20107;-69
2021/09/12 05:21:41;;;;;;;126.05;49.92;;;16.20;99.90;;;;;;5097574;28;20095;-69
2021/09/12 05:24:06;;;;;;;124.35;49.25;;;16.20;99.90;;;;;;5097544;28;20408;-70
2021/09/12 05:26:32;;;;;;;118.07;48.58;;;16.20;99.90;;;;;;5096294;28;20034;-70
2021/09/12 05:28:57;;;;;;;114.50;47.42;;;16.20;99.90;;;;;;5079248;28;20036;-70
2021/09/12 05:31:23;;;;;;;113.53;48.15;;;16.20;99.90;;;;;;5095597;28;20031;-70
2021/09/12 05:33:48;;;;;;;119.88;47.90;;;16.20;99.90;;;;;;5096597;28;20055;-70
2021/09/12 05:36:14;;;;;;;128.43;48.85;;;16.20;99.90;;;;;;5097265;28;20069;-69
2021/09/12 05:38:39;;;;;;;116.10;47.55;;;16.30;99.90;;;;;;5097250;28;20028;-69
2021/09/12 05:41:05;;;;;;;124.43;49.38;;;16.30;99.90;;;;;;5097221;28;20146;-69
2021/09/12 05:43:30;;;;;;;118.63;47.88;;;16.30;99.90;;;;;;5096032;28;20359;-69
2021/09/12 05:45:56;;;;;;;112.10;47.20;;;16.30;99.90;;;;;;5097151;28;20020;-69
2021/09/12 05:48:21;;;;;;;101.63;47.10;;;16.40;99.90;;;;;;5095918;28;20035;-69
2021/09/12 05:50:47;;;;;;;108.43;45.33;;;16.40;99.90;;;;;;5078322;28;20044;-69
2021/09/12 05:53:14;;;;;;;102.95;46.08;;;16.40;99.90;;;;;;5096892;28;20369;-69
2021/09/12 05:55:39;;;;;;;106.43;46.47;;;16.50;99.90;;;;;;5096420;28;20023;-69
2021/09/12 05:58:05;;;;;;;98.28;45.72;;;16.50;99.90;;;;;;5096894;28;20024;-69
2021/09/12 06:00:31;;;;;;;95.05;44.65;;;16.60;99.90;;;;;;5096604;28;20028;-69
2021/09/12 06:02:56;;;;;;;91.03;43.97;;;16.60;99.90;;;;;;5096846;28;20020;-69
2021/09/12 06:05:22;;;;;;;94.15;43.53;;;16.70;99.90;;;;;;5096763;28;20024;-69
2021/09/12 06:07:48;;;;;;;90.70;44.00;;;16.80;99.90;;;;;;5096486;28;20028;-69
2021/09/12 06:10:13;;;;;;;92.15;43.67;;;16.80;99.90;;;;;;5096702;28;20024;-69
2021/09/12 06:12:39;;;;;;;90.18;43.03;;;16.80;99.90;;;;;;5095424;28;20036;-69
2021/09/12 06:15:05;;;;;;;90.15;43.47;;;16.80;99.90;;;;;;5096049;28;20024;-69
2021/09/12 06:17:32;;;;;;;89.30;44.00;;;16.80;99.90;;;;;;5096303;28;20024;-69
2021/09/12 06:19:58;;;;;;;88.72;42.28;;;16.90;99.90;;;;;;5095101;28;20026;-69
2021/09/12 06:22:24;;;;;;;80.53;41.83;;;16.90;99.90;;;;;;5096431;28;20095;-69
2021/09/12 06:24:49;;;;;;;84.97;40.22;;;17.00;99.90;;;;;;5096378;28;20444;-69
2021/09/12 06:27:15;;;;;;;78.82;41.08;;;17.10;99.90;;;;;;5095070;28;20031;-69
2021/09/12 06:29:41;;;;;;;79.53;40.03;;;17.10;99.90;;;;;;5096069;28;20346;-69
2021/09/12 06:32:06;;;;;;;79.13;38.03;;;17.10;99.90;;;;;;5095792;28;20115;-69
2021/09/12 06:34:32;;;;;;;74.60;37.97;;;17.30;99.90;;;;;;5096113;28;20369;-69
2021/09/12 06:36:58;;;;;;;67.55;36.35;;;17.50;99.90;;;;;;5095630;28;20032;-69
2021/09/12 06:39:24;;;;;;;71.78;35.08;;;17.50;99.90;;;;;;5096139;28;20066;-69
2021/09/12 06:41:50;;;;;;;67.32;35.47;;;17.50;99.90;;;;;;5094623;28;20028;-69
2021/09/12 06:44:16;;;;;;;62.40;34.83;;;17.50;99.90;;;;;;5096029;28;20529;-69
2021/09/12 06:46:42;;;;;;;56.33;32.42;;;17.70;99.90;;;;;;5094541;28;20032;-69
2021/09/12 06:49:07;;;;;;;55.63;31.85;;;18.00;99.90;;;;;;5095361;28;20088;-69
2021/09/12 06:51:33;;;;;;;59.05;31.48;;;18.20;99.90;;;;;;5095877;28;20142;-69
2021/09/12 06:53:59;;;;;;;59.22;30.55;;;18.30;99.90;;;;;;5094608;28;20377;-69
2021/09/12 06:56:24;;;;;;;50.17;30.83;;;18.40;99.90;;;;;;5095531;28;20036;-69
2021/09/12 06:58:50;;;;;;;48.28;28.30;;;18.80;99.90;;;;;;5094497;28;20462;-69
2021/09/12 07:01:16;;;;;;;46.28;28.25;;;18.60;99.90;;;;;;5094096;28;20085;-69
2021/09/12 07:03:42;;;;;;;44.95;24.38;;;18.70;99.90;;;;;;5095348;28;20016;-69
2021/09/12 07:06:08;;;;;;;42.08;23.50;;;19.00;99.90;;;;;;5095312;28;20054;-68
2021/09/12 07:08:34;;;;;;;37.22;21.92;;;19.40;99.90;;;;;;5095575;28;20028;-69
2021/09/12 07:10:59;;;;;;;36.28;22.80;;;19.70;99.90;;;;;;5095592;28;20492;-70
2021/09/12 07:13:25;;;;;;;35.28;22.20;;;19.90;99.90;;;;;;5094851;28;20056;-69
2021/09/12 07:15:50;;;;;;;32.38;20.70;;;19.60;99.90;;;;;;5095374;28;20062;-69
2021/09/12 07:18:16;;;;;;;38.92;22.40;;;19.00;99.90;;;;;;5095377;28;20032;-69
2021/09/12 07:20:42;;;;;;;37.70;23.75;;;18.70;99.90;;;;;;5095302;28;20028;-69
2021/09/12 07:23:08;;;;;;;39.67;24.02;;;18.40;99.90;;;;;;5095315;28;20027;-69
2021/09/12 07:25:33;;;;;;;39.65;23.38;;;18.20;99.90;;;;;;5095267;28;20028;-69
2021/09/12 07:27:59;;;;;;;38.10;23.45;;;17.80;99.90;;;;;;5094006;28;20080;-69
2021/09/12 07:30:24;;;;;;;36.60;23.08;;;17.60;99.90;;;;;;5094543;28;20032;-69
2021/09/12 07:32:51;;;;;;;35.42;20.58;;;17.40;99.90;;;;;;5092987;28;20040;-69
2021/09/12 07:35:16;;;;;;;34.40;20.20;;;17.30;99.90;;;;;;5094495;28;20012;-69
2021/09/12 07:37:42;;;;;;;33.80;21.08;;;17.20;99.90;;;;;;5094283;28;20034;-69
2021/09/12 07:40:08;;;;;;;40.53;19.45;;;17.20;99.90;;;;;;5094431;28;20069;-69
2021/09/12 07:42:34;;;;;;;25.00;15.77;;;17.20;99.90;;;;;;5094656;28;20016;-69
2021/09/12 07:44:59;;;;;;;27.73;16.52;;;17.50;99.90;;;;;;5093416;28;20032;-69
2021/09/12 07:47:25;;;;;;;29.05;15.73;;;18.20;99.90;;;;;;5094820;28;20027;-69
2021/09/12 07:49:50;;;;;;;18.98;11.95;;;18.50;99.90;;;;;;5094495;28;20024;-69
2021/09/12 07:52:16;;;;;;;19.98;11.82;;;18.90;99.90;;;;;;5094695;28;20477;-69
2021/09/12 07:54:41;;;;;;;18.90;12.15;;;19.40;99.90;;;;;;5094689;28;20085;-69
2021/09/12 07:57:07;;;;;;;21.05;11.88;;;19.20;99.90;;;;;;5094674;28;20031;-69
2021/09/12 07:59:32;;;;;;;18.02;11.60;;;19.00;99.90;;;;;;5093989;28;20111;-68
2021/09/12 08:01:58;;;;;;;20.25;11.35;;;19.10;99.90;;;;;;5094300;28;20152;-69
2021/09/12 08:04:24;;;;;;;20.23;11.30;;;19.10;99.90;;;;;;5094268;28;20031;-68
2021/09/12 08:06:49;;;;;;;20.60;11.63;;;18.90;99.90;;;;;;5094533;28;20027;-69
2021/09/12 08:09:15;;;;;;;22.65;12.45;;;19.30;99.90;;;;;;5094418;28;20031;-69
2021/09/12 08:11:41;;;;;;;18.48;11.52;;;19.30;99.90;;;;;;5094441;28;20024;-68
2021/09/12 08:14:06;;;;;;;20.60;11.70;;;19.30;99.90;;;;;;5094000;28;20103;-69
2021/09/12 08:16:32;;;;;;;21.33;14.40;;;18.80;99.90;;;;;;5094111;28;20456;-69
2021/09/12 08:18:58;;;;;;;17.83;12.02;;;18.60;99.90;;;;;;5093273;28;20024;-69
2021/09/12 08:21:23;;;;;;;17.85;10.95;;;19.20;99.90;;;;;;5092402;28;20020;-69
2021/09/12 08:23:51;;;;;;;15.18;9.15;;;19.90;99.90;;;;;;5094171;28;20028;-68
2021/09/12 08:26:17;;;;;;;14.57;8.77;;;20.20;99.90;;;;;;5094226;28;20027;-69
2021/09/12 08:28:42;;;;;;;13.90;8.38;;;20.70;99.90;;;;;;5094147;28;20024;-69
2021/09/12 08:31:08;;;;;;;10.50;7.80;;;21.10;99.90;;;;;;5075517;28;20110;-68
2021/09/12 08:33:34;;;;;;;17.40;10.13;;;20.80;99.90;;;;;;5093234;28;20071;-68
2021/09/12 08:35:59;;;;;;;19.90;9.55;;;20.40;99.90;;;;;;5092306;28;20490;-69
2021/09/12 08:38:25;;;;;;;18.55;10.30;;;21.00;99.90;;;;;;5094054;28;20066;-69
2021/09/12 08:40:57;;;;;;;19.08;10.95;;;21.00;99.90;;;;;;5092793;28;20092;-69
2021/09/12 08:43:23;;;;;;;17.48;10.15;;;20.60;99.90;;;;;;5093970;28;20099;-69
2021/09/12 08:45:49;;;;;;;21.55;11.55;;;21.20;99.90;;;;;;5093949;28;20483;-69
2021/09/12 08:48:15;;;;;;;25.08;18.33;;;21.50;99.90;;;;;;5093725;28;20020;-68
2021/09/12 08:50:40;;;;;;;26.15;20.02;;;21.80;99.90;;;;;;5096398;28;20054;-69
2021/09/12 08:53:06;;;;;;;26.65;21.15;;;21.40;99.90;;;;;;5097776;28;20358;-69
2021/09/12 08:55:31;;;;;;;23.02;20.13;;;21.50;99.90;;;;;;5098067;28;20422;-69
2021/09/12 08:57:59;;;;;;;31.15;22.45;;;21.50;99.90;;;;;;5096260;28;20546;-69
2021/09/12 09:00:26;;;;;;;34.22;24.85;;;20.90;99.90;;;;;;5097952;28;20466;-69
2021/09/12 09:03:00;;;;;;;27.90;22.60;;;20.80;99.90;;;;;;5096816;28;20031;-69
2021/09/12 09:05:31;;;;;;;32.50;23.85;;;21.40;99.90;;;;;;5096632;28;20081;-69
2021/09/12 09:08:06;;;;;;;25.52;20.27;;;21.10;99.90;;;;;;5097669;28;20144;-69
2021/09/12 09:10:45;;;;;;;27.85;19.20;;;21.60;99.90;;;;;;5097789;28;20024;-69
2021/09/12 09:13:35;;;;;;;24.90;17.55;;;21.50;99.90;;;;;;5097758;28;20028;-69
2021/09/12 09:16:03;;;;;;;24.50;16.45;;;21.50;99.90;;;;;;5095838;28;20024;-69
2021/09/12 09:18:45;;;;;;;21.27;16.38;;;21.50;99.90;;;;;;5097153;28;20020;-69
2021/09/12 09:21:29;;;;;;;21.65;16.30;;;21.50;99.90;;;;;;5097685;28;20027;-69
2021/09/12 09:24:21;;;;;;;20.27;15.52;;;21.50;99.90;;;;;;5097605;28;20453;-69
2021/09/12 09:26:50;;;;;;;16.80;12.43;;;21.60;99.90;;;;;;5095714;28;20024;-69
2021/09/12 09:29:22;;;;;;;15.25;10.18;;;21.90;99.90;;;;;;5097484;28;20028;-69
2021/09/12 09:32:05;;;;;;;14.52;8.98;;;21.70;99.90;;;;;;5097289;28;20028;-69
2021/09/12 09:34:30;;;;;;;12.07;7.68;;;21.90;99.90;;;;;;5096986;28;20028;-69
2021/09/12 09:37:11;;;;;;;11.13;6.68;;;21.70;99.90;;;;;;5097070;28;20097;-69
2021/09/12 09:39:57;;;;;;;10.88;6.97;;;21.70;99.90;;;;;;5097294;28;20016;-69
2021/09/12 09:42:39;;;;;;;17.35;6.63;;;21.90;99.90;;;;;;5097180;28;20020;-69
2021/09/12 09:45:08;;;;;;;10.68;5.85;;;21.60;99.90;;;;;;5096621;28;20020;-69
2021/09/12 09:47:35;;;;;;;16.48;6.53;;;21.60;99.90;;;;;;5096542;28;20023;-69
2021/09/12 09:50:08;;;;;;;11.40;5.45;;;22.00;99.90;;;;;;5096459;28;20059;-69
2021/09/12 09:52:35;;;;;;;12.02;5.50;;;22.20;99.90;;;;;;5096893;28;20024;-69
2021/09/12 09:55:02;;;;;;;12.40;5.63;;;22.20;99.90;;;;;;5096967;28;20020;-69
2021/09/12 09:57:29;;;;;;;9.88;5.15;;;22.40;99.90;;;;;;5096875;28;20016;-69
2021/09/12 09:59:55;;;;;;;9.75;5.43;;;22.20;99.90;;;;;;5096551;28;20016;-69
2021/09/12 10:02:21;;;;;;;10.65;5.15;;;21.80;99.90;;;;;;5095541;28;20154;-69
2021/09/12 10:04:47;;;;;;;10.55;5.10;;;21.70;99.90;;;;;;5096533;28;20071;-69
2021/09/12 10:07:12;;;;;;;9.10;4.93;;;21.80;99.90;;;;;;5096725;28;20020;-69
2021/09/12 10:09:39;;;;;;;11.32;4.70;;;22.20;99.90;;;;;;5096423;28;20024;-69
2021/09/12 10:12:09;;;;;;;9.30;4.60;;;22.40;99.90;;;;;;5096657;28;20031;-69
2021/09/12 10:14:55;;;;;;;8.80;4.18;;;22.30;99.90;;;;;;5096520;28;20031;-69
2021/09/12 10:17:23;;;;;;;10.23;5.60;;;21.60;99.90;;;;;;5096587;28;20031;-69
2021/09/12 10:19:48;;;;;;;8.18;4.68;;;21.20;99.90;;;;;;5096483;28;20016;-69
2021/09/12 10:22:16;;;;;;;8.15;4.85;;;21.40;99.90;;;;;;5094774;28;20366;-69
2021/09/12 10:25:05;;;;;;;10.57;5.03;;;21.10;99.90;;;;;;5094595;28;20024;-69
2021/09/12 10:27:41;;;;;;;11.10;5.00;;;20.70;99.90;;;;;;5096010;28;20021;-69
2021/09/12 10:30:39;;;;;;;16.00;6.00;;;20.70;99.90;;;;;;5096307;28;20020;-69
2021/09/12 10:36:03;;;;;;;7.63;5.30;;;20.90;99.90;;;;;;5112221;27;20376;-69
2021/09/12 10:38:44;;;;;;;8.93;5.45;;;20.90;99.90;;;;;;5110407;28;20438;-69
2021/09/12 10:41:12;;;;;;;10.90;5.53;;;20.90;99.90;;;;;;5110379;28;20408;-69
2021/09/12 10:43:41;;;;;;;8.02;5.45;;;21.00;99.90;;;;;;5111757;28;20031;-68
2021/09/12 10:51:29;;;;;;;10.52;6.10;;;21.90;99.90;;;;;;5091815;28;20377;-69
2021/09/12 10:54:01;;;;;;;9.57;5.60;;;21.00;99.90;;;;;;5089680;28;20436;-69
2021/09/12 10:56:30;;;;;;;8.30;5.47;;;21.40;99.90;;;;;;5091508;28;20023;-69
2021/09/12 10:59:14;;;;;;;7.72;5.05;;;21.70;99.90;;;;;;5091446;28;20028;-68
2021/09/12 11:01:42;;;;;;;10.80;5.43;;;21.70;99.90;;;;;;5091125;28;20420;-69
2021/09/12 11:04:10;;;;;;;9.95;5.43;;;22.00;99.90;;;;;;5091088;28;20024;-69
2021/09/12 11:06:39;;;;;;;10.27;5.00;;;22.30;99.90;;;;;;5091272;28;20024;-69
2021/09/12 11:09:16;;;;;;;6.75;5.22;;;22.30;99.90;;;;;;5091082;28;20119;-69
2021/09/12 11:11:41;;;;;;;12.25;5.28;;;22.40;99.90;;;;;;5090873;28;20020;-69
2021/09/12 11:14:08;;;;;;;8.05;5.57;;;22.50;99.90;;;;;;5091164;28;20032;-69
2021/09/12 11:16:34;;;;;;;9.98;5.88;;;22.10;99.90;;;;;;5090502;28;20024;-68
2021/09/12 11:19:02;;;;;;;10.32;6.18;;;22.00;99.90;;;;;;5090453;28;20028;-69
2021/09/12 11:24:08;;;;;;;10.15;6.40;;;22.10;99.90;;;;;;5071619;28;20524;-69
2021/09/12 11:26:42;;;;;;;10.15;6.40;;;22.50;99.90;;;;;;5069941;28;20137;-69
2021/09/12 11:29:11;;;;;;;8.73;6.30;;;22.00;99.90;;;;;;5071129;28;20017;-69
2021/09/12 11:31:38;;;;;;;11.00;6.35;;;21.80;99.90;;;;;;5070934;28;20049;-68
2021/09/12 11:34:04;;;;;;;12.30;6.30;;;22.10;99.90;;;;;;5071055;28;20047;-69
2021/09/12 11:36:51;;;;;;;9.02;5.10;;;22.00;99.90;;;;;;5069960;28;20021;-69
2021/09/12 11:39:24;;;;;;;10.02;5.40;;;21.80;99.90;;;;;;5071063;28;20021;-69
2021/09/12 11:41:51;;;;;;;12.40;6.13;;;21.40;99.90;;;;;;5070994;28;20017;-69
2021/09/12 11:44:17;;;;;;;12.57;5.97;;;21.30;99.90;;;;;;5070984;28;20028;-69
2021/09/12 11:46:45;;;;;;;13.75;5.45;;;21.50;99.90;;;;;;5069142;28;20017;-69
2021/09/12 11:49:11;;;;;;;6.80;5.00;;;21.60;99.90;;;;;;5070321;28;20104;-69
2021/09/12 11:51:39;;;;;;;11.43;5.10;;;21.80;99.90;;;;;;5070566;28;20440;-69
2021/09/12 11:57:08;;;;;;;9.02;5.40;;;21.90;99.90;;;;;;5112213;27;20355;-69
2021/09/12 11:59:39;;;;;;;9.05;5.07;;;21.80;99.90;;;;;;5111344;28;20031;-69
2021/09/12 12:02:10;;;;;;;7.53;4.50;;;21.90;99.90;;;;;;5111850;28;20016;-69
2021/09/12 12:04:38;;;;;;;9.45;4.95;;;22.10;99.90;;;;;;5110661;28;20088;-69
2021/09/12 12:07:03;;;;;;;7.65;4.68;;;22.00;99.90;;;;;;5111774;28;20051;-69
2021/09/12 12:09:47;;;;;;;9.43;4.32;;;22.00;99.90;;;;;;5111183;28;20023;-69
2021/09/12 12:12:14;;;;;;;7.57;3.75;;;22.50;99.90;;;;;;5111409;28;20072;-69
2021/09/12 12:14:55;;;;;;;8.10;3.70;;;22.20;99.90;;;;;;5111533;28;20020;-69
2021/09/12 12:17:22;;;;;;;9.18;3.60;;;22.70;99.90;;;;;;5110156;28;20048;-69
2021/09/12 12:19:48;;;;;;;6.45;3.92;;;22.70;99.90;;;;;;5111231;28;20122;-68
2021/09/12 12:22:15;;;;;;;7.20;3.42;;;22.60;99.90;;;;;;5111400;28;20061;-69
2021/09/12 12:24:44;;;;;;;8.60;3.60;;;22.60;99.90;;;;;;5110216;28;20028;-69
2021/09/12 12:27:11;;;;;;;4.82;3.03;;;22.90;99.90;;;;;;5109911;28;20024;-69
2021/09/12 12:29:40;;;;;;;6.60;3.60;;;23.40;99.90;;;;;;5111043;28;20486;-69
2021/09/12 12:32:07;;;;;;;3.80;3.10;;;23.40;99.90;;;;;;5110061;28;20067;-69
2021/09/12 12:34:52;;;;;;;8.75;3.60;;;22.80;99.90;;;;;;5110126;28;20415;-69
2021/09/12 12:37:19;;;;;;;6.43;3.55;;;22.60;99.90;;;;;;5092553;28;20019;-69
2021/09/12 12:39:57;;;;;;;6.65;3.30;;;22.60;99.90;;;;;;5109592;28;20020;-69
2021/09/12 12:42:33;;;;;;;4.75;2.97;;;22.30;99.90;;;;;;5110587;28;20016;-69
2021/09/12 12:44:58;;;;;;;4.55;3.17;;;22.50;99.90;;;;;;5110819;28;20130;-69